createdAt,value
2023-03-28T00:03:23.919Z,3.05
2023-03-28T00:08:23.715Z,3.03
2023-03-28T00:13:23.588Z,2.96
2023-03-28T00:18:23.534Z,3.02
2023-03-28T00:23:23.491Z,2.87
2023-03-28T00:28:23.432Z,2.87
2023-03-28T00:33:23.385Z,2.93
2023-03-28T00:38:23.320Z,3.00
2023-03-28T00:43:23.280Z,3.02
2023-03-28T00:48:23.315Z,2.95
2023-03-28T00:53:23.154Z,2.99
2023-03-28T00:58:23.090Z,2.87
2023-03-28T01:03:23.202Z,2.99
2023-03-28T01:08:23.145Z,2.85
2023-03-28T01:13:22.919Z,2.82
2023-03-28T01:18:23.087Z,3.00
2023-03-28T01:23:22.815Z,2.87
2023-03-28T01:28:22.728Z,2.82
2023-03-28T01:33:22.737Z,2.75
2023-03-28T01:38:22.675Z,2.75
2023-03-28T01:43:22.580Z,2.82
2023-03-28T01:48:22.563Z,2.77
2023-03-28T01:53:22.676Z,2.71
2023-03-28T01:58:22.602Z,2.69
2023-03-28T02:03:22.578Z,2.63
2023-03-28T02:08:22.459Z,2.52
2023-03-28T02:13:22.299Z,2.56
2023-03-28T02:18:22.370Z,2.61
2023-03-28T02:23:22.176Z,2.09
2023-03-28T02:28:22.141Z,1.58
2023-03-28T02:33:22.059Z,1.36
2023-03-28T02:38:22.038Z,1.27
2023-03-28T02:43:22.174Z,1.27
2023-03-28T02:48:21.937Z,1.42
2023-03-28T02:53:21.880Z,1.26
2023-03-28T02:58:21.777Z,1.09
2023-03-28T03:03:21.819Z,0.91
2023-03-28T03:08:21.746Z,0.80
2023-03-28T03:13:22.708Z,0.79
2023-03-28T03:18:21.581Z,0.83
2023-03-28T03:23:29.107Z,0.93
2023-03-28T03:28:21.488Z,0.75
2023-03-28T03:33:21.447Z,0.60
2023-03-28T03:38:21.409Z,0.55
2023-03-28T03:43:21.318Z,0.61
2023-03-28T03:48:21.303Z,0.55
2023-03-28T03:53:21.216Z,0.49
2023-03-28T03:58:21.359Z,0.46
2023-03-28T04:03:25.251Z,0.55
2023-03-28T04:08:21.168Z,0.53
2023-03-28T04:13:21.012Z,1.02
2023-03-28T04:18:20.979Z,1.14
2023-03-28T04:23:20.876Z,1.23
2023-03-28T04:28:20.912Z,0.98
2023-03-28T04:33:20.799Z,1.04
2023-03-28T04:38:21.585Z,0.94
2023-03-28T04:43:20.804Z,0.97
2023-03-28T04:48:20.756Z,1.06
2023-03-28T04:53:20.637Z,0.98
2023-03-28T04:58:20.645Z,1.08
2023-03-28T05:03:20.658Z,0.88
2023-03-28T05:08:20.659Z,0.78
2023-03-28T05:13:20.429Z,0.78
2023-03-28T05:18:20.360Z,0.72
2023-03-28T05:23:20.501Z,0.80
2023-03-28T05:28:20.434Z,0.68
2023-03-28T05:33:21.366Z,0.72
2023-03-28T05:38:20.183Z,0.75
2023-03-28T05:43:20.154Z,0.87
2023-03-28T05:48:20.009Z,0.70
2023-03-28T05:53:19.946Z,0.88
2023-03-28T05:58:20.126Z,0.90
2023-03-28T06:03:20.195Z,1.02
2023-03-28T06:08:19.809Z,1.02
2023-03-28T06:13:19.886Z,1.44
2023-03-28T06:18:19.657Z,1.59
2023-03-28T06:23:19.738Z,1.77
2023-03-28T06:28:19.764Z,1.69
2023-03-28T06:33:19.690Z,1.86
2023-03-28T06:38:19.585Z,2.16
2023-03-28T06:43:19.551Z,2.56
2023-03-28T06:48:19.556Z,2.84
2023-03-28T06:53:19.468Z,3.14
2023-03-28T06:58:19.364Z,3.47
2023-03-28T07:03:21.127Z,3.52
2023-03-28T07:08:19.414Z,3.84
2023-03-28T07:13:19.276Z,3.98
2023-03-28T07:18:19.224Z,4.27
2023-03-28T07:23:19.114Z,4.41
2023-03-28T07:28:20.045Z,4.58
2023-03-28T07:33:24.082Z,4.75
2023-03-28T07:38:20.055Z,4.80
2023-03-28T07:43:20.356Z,5.13
2023-03-28T07:48:18.945Z,5.28
2023-03-28T07:53:18.766Z,5.58
2023-03-28T07:58:18.730Z,5.78
2023-03-28T08:03:18.825Z,5.91
2023-03-28T08:08:18.637Z,6.22
2023-03-28T08:13:18.554Z,6.28
2023-03-28T08:18:18.480Z,6.61
2023-03-28T08:23:18.366Z,7.07
2023-03-28T08:28:18.393Z,7.46
2023-03-28T08:33:18.452Z,7.71
2023-03-28T08:38:18.756Z,7.93
2023-03-28T08:43:28.332Z,8.20
2023-03-28T08:48:18.371Z,8.28
2023-03-28T08:53:21.326Z,8.37
2023-03-28T08:58:17.954Z,8.52
2023-03-28T09:03:17.923Z,8.15
2023-03-28T09:08:19.678Z,8.34
2023-03-28T09:13:17.838Z,8.59
2023-03-28T09:18:17.739Z,8.74
2023-03-28T09:23:17.699Z,9.05
2023-03-28T09:28:17.619Z,8.98
2023-03-28T09:33:17.513Z,9.23
2023-03-28T09:38:17.636Z,9.36
2023-03-28T09:43:17.472Z,9.17
2023-03-28T09:48:19.602Z,9.17
2023-03-28T09:53:17.450Z,9.33
2023-03-28T09:58:17.368Z,9.35
2023-03-28T10:03:17.211Z,9.43
2023-03-28T10:08:17.134Z,9.13
2023-03-28T10:13:17.168Z,9.05
2023-03-28T10:18:17.127Z,9.51
2023-03-28T10:23:16.943Z,9.47
2023-03-28T10:28:16.929Z,9.72
2023-03-28T10:33:16.891Z,9.90
2023-03-28T10:38:16.869Z,9.89
2023-03-28T10:43:16.810Z,10.26
2023-03-28T10:48:16.783Z,10.45
2023-03-28T10:53:16.764Z,10.64
2023-03-28T10:58:16.659Z,10.32
2023-03-28T11:03:16.838Z,10.07
2023-03-28T11:08:16.488Z,10.02
2023-03-28T11:13:16.541Z,9.96
2023-03-28T11:18:16.518Z,10.17
2023-03-28T11:23:16.300Z,10.55
2023-03-28T11:28:16.410Z,10.89
2023-03-28T11:33:16.319Z,10.76
2023-03-28T11:38:16.211Z,10.66
2023-03-28T11:43:16.118Z,10.66
2023-03-28T11:48:16.064Z,10.76
2023-03-28T11:53:18.118Z,10.88
2023-03-28T11:58:15.924Z,11.09
2023-03-28T12:03:15.949Z,11.35
2023-03-28T12:08:15.969Z,11.29
2023-03-28T12:13:15.883Z,11.22
2023-03-28T12:18:15.817Z,11.02
2023-03-28T12:23:15.841Z,11.52
2023-03-28T12:28:15.861Z,11.72
2023-03-28T12:33:15.690Z,11.49
2023-03-28T12:38:15.503Z,11.33
2023-03-28T12:43:15.614Z,11.37
2023-03-28T12:48:16.667Z,11.69
2023-03-28T12:53:15.416Z,12.09
2023-03-28T12:58:15.266Z,12.27
2023-03-28T13:03:15.410Z,11.76
2023-03-28T13:08:15.213Z,12.38
2023-03-28T13:13:15.201Z,12.07
2023-03-28T13:18:15.171Z,11.73
2023-03-28T13:23:14.978Z,11.80
2023-03-28T13:28:15.040Z,11.85
2023-03-28T13:33:14.921Z,11.27
2023-03-28T13:38:14.931Z,11.94
2023-03-28T13:43:14.947Z,12.13
2023-03-28T13:48:15.025Z,12.52
2023-03-28T13:53:14.888Z,12.07
2023-03-28T13:58:16.146Z,11.88
2023-03-28T14:03:14.700Z,11.76
2023-03-28T14:08:14.818Z,11.88
2023-03-28T14:13:14.615Z,12.17
2023-03-28T14:18:14.465Z,11.85
2023-03-28T14:23:14.346Z,11.96
2023-03-28T14:28:14.262Z,11.64
2023-03-28T14:33:14.933Z,11.60
2023-03-28T14:38:14.317Z,11.46
2023-03-28T14:43:14.175Z,11.65
2023-03-28T14:48:14.214Z,11.64
2023-03-28T14:53:14.054Z,11.44
2023-03-28T14:58:13.943Z,11.49
2023-03-28T15:03:13.945Z,11.11
2023-03-28T15:08:13.952Z,11.44
2023-03-28T15:13:13.779Z,11.10
2023-03-28T15:18:13.743Z,10.99
2023-03-28T15:23:13.749Z,11.21
2023-03-28T15:28:13.766Z,11.03
2023-03-28T15:33:13.768Z,10.94
2023-03-28T15:38:13.516Z,11.06
2023-03-28T15:43:13.661Z,11.02
2023-03-28T15:48:13.421Z,11.07
2023-03-28T15:53:13.365Z,11.17
2023-03-28T15:58:13.318Z,10.97
2023-03-28T16:03:13.419Z,11.11
2023-03-28T16:08:13.263Z,10.73
2023-03-28T16:13:13.195Z,10.70
2023-03-28T16:18:13.444Z,10.84
2023-03-28T16:23:14.081Z,10.74
2023-03-28T16:28:13.019Z,10.68
2023-03-28T16:33:12.949Z,10.71
2023-03-28T16:38:12.883Z,10.66
2023-03-28T16:43:12.967Z,10.67
2023-03-28T16:48:12.875Z,10.53
2023-03-28T16:53:12.736Z,10.84
2023-03-28T16:58:12.717Z,10.73
2023-03-28T17:03:12.839Z,10.68
2023-03-28T17:08:12.611Z,10.71
2023-03-28T17:13:12.528Z,10.67
2023-03-28T17:18:12.544Z,10.68
2023-03-28T17:23:12.418Z,10.60
2023-03-28T17:28:12.297Z,10.42
2023-03-28T17:33:12.390Z,10.40
2023-03-28T17:38:12.322Z,10.30
2023-03-28T17:43:12.151Z,10.36
2023-03-28T17:48:12.130Z,10.30
2023-03-28T17:53:12.019Z,10.18
2023-03-28T17:58:11.968Z,10.05
2023-03-28T18:03:12.024Z,9.94
2023-03-28T18:08:11.869Z,10.01
2023-03-28T18:13:11.962Z,9.76
2023-03-28T18:18:11.931Z,9.83
2023-03-28T18:23:11.829Z,9.90
2023-03-28T18:28:11.771Z,9.89
2023-03-28T18:33:11.817Z,9.79
2023-03-28T18:38:11.549Z,9.68
2023-03-28T18:43:11.516Z,9.48
2023-03-28T18:48:11.596Z,9.68
2023-03-28T18:53:11.429Z,9.69
2023-03-28T18:58:11.500Z,9.61
2023-03-28T19:03:11.519Z,9.57
2023-03-28T19:08:11.299Z,9.72
2023-03-28T19:13:11.283Z,9.39
2023-03-28T19:18:11.105Z,9.08
2023-03-28T19:23:12.181Z,9.21
2023-03-28T19:28:11.171Z,9.43
2023-03-28T19:33:12.101Z,9.14
2023-03-28T19:38:10.980Z,8.91
2023-03-28T19:43:10.882Z,8.81
2023-03-28T19:48:10.764Z,8.79
2023-03-28T19:53:10.707Z,8.43
2023-03-28T19:58:10.624Z,8.12
2023-03-28T20:03:10.678Z,7.80
2023-03-28T20:08:10.499Z,7.85
2023-03-28T20:13:10.580Z,7.95
2023-03-28T20:18:10.488Z,7.69
2023-03-28T20:23:10.342Z,7.67
2023-03-28T20:28:10.289Z,7.68
2023-03-28T20:33:10.375Z,7.31
2023-03-28T20:38:10.414Z,7.32
2023-03-28T20:43:10.240Z,7.34
2023-03-28T20:48:10.243Z,7.21
2023-03-28T20:53:10.059Z,6.87
2023-03-28T20:58:09.937Z,6.81
2023-03-28T21:03:09.936Z,6.89
2023-03-28T21:08:09.989Z,6.77
2023-03-28T21:13:09.797Z,6.81
2023-03-28T21:18:09.899Z,6.61
2023-03-28T21:23:09.784Z,6.88
2023-03-28T21:28:09.701Z,6.94
2023-03-28T21:33:09.729Z,6.85
2023-03-28T21:38:09.558Z,6.84
2023-03-28T21:43:09.650Z,6.71
2023-03-28T21:48:09.413Z,7.02
2023-03-28T21:53:09.353Z,6.80
2023-03-28T21:58:09.349Z,6.84
2023-03-28T22:03:09.431Z,6.95
2023-03-28T22:08:09.225Z,6.92
2023-03-28T22:13:09.172Z,6.77
2023-03-28T22:18:09.253Z,6.89
2023-03-28T22:23:09.100Z,6.97
2023-03-28T22:28:09.140Z,6.76
2023-03-28T22:33:09.044Z,6.74
2023-03-28T22:38:09.019Z,6.94
2023-03-28T22:43:08.919Z,6.79
2023-03-28T22:48:08.931Z,6.66
2023-03-28T22:53:08.859Z,6.88
2023-03-28T22:58:08.743Z,6.92
2023-03-28T23:03:08.682Z,6.79
2023-03-28T23:08:08.759Z,6.58
2023-03-28T23:13:08.531Z,6.73
2023-03-28T23:18:08.485Z,6.74
2023-03-28T23:23:08.373Z,6.88
2023-03-28T23:28:08.346Z,7.03
2023-03-28T23:33:08.364Z,7.06
2023-03-28T23:38:08.245Z,7.12
2023-03-28T23:43:08.242Z,6.91
2023-03-28T23:48:08.175Z,6.88
2023-03-28T23:53:08.073Z,6.94
2023-03-28T23:58:08.034Z,7.12
